This is the latest recevied weather packets stored in our database for station/object SZENTESWX. If no packets are shown the sender has not sent any weather packets the latest 10 day(s).
| Time | Temp. | Humidity | Pressure | Rain* | Wind** | Luminosity | Snow |
|---|---|---|---|---|---|---|---|
| 1777839485 | 12.78° C | 53% | 1019 hPa | 0 mm | - | - | - |
| 1777838885 | 12.78° C | 53% | 1019 hPa | 0 mm | - | - | - |
| 1777838284 | 12.78° C | 53% | 1019 hPa | 0 mm | - | - | - |
| 1777837683 | 12.78° C | 53% | 1019 hPa | 0 mm | - | - | - |
| 1777837083 | 15° C | 50% | 1019 hPa | 0 mm | - | - | - |
| 1777836482 | 15° C | 50% | 1019 hPa | 0 mm | - | - | - |
| 1777835881 | 15° C | 50% | 1019 hPa | 0 mm | - | - | - |
| 1777835281 | 15° C | 50% | 1019 hPa | 0 mm | - | - | - |
| 1777834681 | 15° C | 50% | 1019 hPa | 0 mm | - | - | - |
| 1777834080 | 15° C | 50% | 1019 hPa | 0 mm | - | - | - |
| 1777833479 | 15° C | 50% | 1019 hPa | 0 mm | - | - | - |
| 1777832879 | 16.67° C | 45% | 1019 hPa | 0 mm | - | - | - |
| 1777832279 | 17.22° C | 44% | 1019 hPa | 0 mm | - | - | - |
| 1777831077 | 17.78° C | 45% | 1019 hPa | 0 mm | - | - | - |
| 1777830477 | 17.78° C | 45% | 1019 hPa | 0 mm | - | - | - |
| 1777829876 | 17.78° C | 45% | 1019 hPa | 0 mm | - | - | - |
| 1777829276 | 19.44° C | 39% | 1019 hPa | 0 mm | - | - | - |
| 1777828675 | 20° C | 41% | 1019 hPa | 0 mm | - | - | - |
| 1777828075 | 20° C | 41% | 1019 hPa | 0 mm | - | - | - |
| 1777827474 | 19.44° C | 43% | 1019 hPa | 0 mm | - | - | - |
| 1777826874 | 20° C | 42% | 1019 hPa | 0 mm | - | - | - |
| 1777826273 | 19.44° C | 38% | 1019 hPa | 0 mm | - | - | - |
| 1777825673 | 19.44° C | 38% | 1019 hPa | 0 mm | - | - | - |
| 1777825072 | 19.44° C | 38% | 1019 hPa | 0 mm | - | - | - |
| 1777824472 | 19.44° C | 38% | 1019 hPa | 0 mm | - | - | - |
* Rain latest hour (hover to see other rain measurements)
** Current wind speed in m/s (hover to see current wind gust speed)